Time;durP1;ratioP1;P1;durP2;ratioP2;P2;SDS_P1;SDS_P2;PMS_P1;PMS_P2;Temp;Humidity;BMP_temperature;BMP_pressure;BME280_temperature;BME280_humidity;BME280_pressure;Samples;Min_cycle;Max_cycle;Signal;HPM_P1;HPM_P2
2021/12/25 00:04:07;;;;;;;3.6;6.2;;;;;;;1.7;82;97470;;;;
2021/12/25 00:14:11;;;;;;;3.6;6.2;;;;;;;1.6;82;97480;;;;
2021/12/25 00:24:07;;;;;;;5.4;8;;;;;;;1.6;82.2;97480;;;;
2021/12/25 00:34:09;;;;;;;5.4;8;;;;;;;1.6;82.5;97500;;;;
2021/12/25 00:44:07;;;;;;;5.4;8;;;;;;;1.6;82.6;97510;;;;
2021/12/25 00:55:08;;;;;;;7.2;10.1;;;;;;;1.5;82.8;97550;;;;
2021/12/25 01:05:07;;;;;;;7.2;10.1;;;;;;;1.4;83.1;97560;;;;
2021/12/25 01:16:22;;;;;;;6.2;8.7;;;;;;;1.4;83.2;97580;;;;
2021/12/25 01:26:21;;;;;;;6.2;8.7;;;;;;;1.4;83.3;97600;;;;
2021/12/25 01:36:28;;;;;;;6.2;8.7;;;;;;;1.4;83.3;97600;;;;
2021/12/25 01:57:07;;;;;;;7.8;10.7;;;;;;;1.4;82.7;97620;;;;
2021/12/25 02:08:07;;;;;;;7.8;10.7;;;;;;;1.5;82.3;97610;;;;
2021/12/25 02:18:12;;;;;;;7.6;10.8;;;;;;;1.4;82.1;97630;;;;
2021/12/25 02:28:07;;;;;;;7.6;10.8;;;;;;;1.4;82.3;97650;;;;
2021/12/25 02:38:07;;;;;;;7.6;10.8;;;;;;;1.5;82.1;97650;;;;
2021/12/25 02:48:07;;;;;;;7.8;12.6;;;;;;;1.4;82.2;97670;;;;
2021/12/25 02:59:07;;;;;;;7.8;12.6;;;;;;;1.5;82;97690;;;;
2021/12/25 03:10:07;;;;;;;7.8;12.6;;;;;;;1.4;82.2;97700;;;;
2021/12/25 03:20:07;;;;;;;9.1;11.8;;;;;;;1.4;82.1;97710;;;;
2021/12/25 03:30:07;;;;;;;9.1;11.8;;;;;;;1.4;82;97710;;;;
2021/12/25 03:41:08;;;;;;;9.1;11.8;;;;;;;1.5;81.9;97730;;;;
2021/12/25 04:02:14;;;;;;;10.9;14.6;;;;;;;1.2;81.6;97760;;;;
2021/12/25 04:13:07;;;;;;;10.9;14.6;;;;;;;1.2;82.5;97780;;;;
2021/12/25 04:24:07;;;;;;;8;10.6;;;;;;;0.5;79.7;97830;;;;
2021/12/25 05:06:07;;;;;;;3.5;6.4;;;;;;;-0.5;77.1;97900;;;;
2021/12/25 05:16:07;;;;;;;3.6;6.5;;;;;;;-0.6;77;97910;;;;
2021/12/25 05:26:07;;;;;;;3.6;6.5;;;;;;;-0.8;77;97920;;;;
2021/12/25 05:36:07;;;;;;;3.6;6.5;;;;;;;-0.9;76.4;97930;;;;
2021/12/25 05:46:07;;;;;;;3.5;5.9;;;;;;;-0.8;76.5;97950;;;;
2021/12/25 05:56:07;;;;;;;3.5;5.9;;;;;;;-1.3;75.9;97970;;;;
2021/12/25 06:07:07;;;;;;;3.5;5.9;;;;;;;-1.5;77.4;97990;;;;
2021/12/25 06:17:07;;;;;;;2.5;4.1;;;;;;;-1.6;77.4;98010;;;;
2021/12/25 06:28:07;;;;;;;2.5;4.1;;;;;;;-1.5;77.4;98030;;;;
2021/12/25 06:39:11;;;;;;;2.5;4.1;;;;;;;-1.5;77.2;98040;;;;
2021/12/25 06:50:07;;;;;;;2.6;5.4;;;;;;;-1.6;77.6;98060;;;;
2021/12/25 07:00:07;;;;;;;2.6;5.4;;;;;;;-1.6;78.1;98070;;;;
2021/12/25 07:11:07;;;;;;;2.6;5.4;;;;;;;-2;77.6;98090;;;;
2021/12/25 07:22:07;;;;;;;3.6;5;;;;;;;-2.3;77.4;98110;;;;
2021/12/25 07:32:07;;;;;;;3.6;5;;;;;;;-2.7;77.6;98110;;;;
2021/12/25 07:42:07;;;;;;;3.6;5;;;;;;;-2.8;77.9;98140;;;;
2021/12/25 07:52:07;;;;;;;5.1;7.8;;;;;;;-2.7;77.5;98140;;;;
2021/12/25 08:03:07;;;;;;;5.1;7.8;;;;;;;-2.6;75.6;98160;;;;
2021/12/25 08:13:07;;;;;;;5.1;7.8;;;;;;;-2.6;76.3;98170;;;;
2021/12/25 08:23:07;;;;;;;42.9;52.8;;;;;;;-2.3;75.3;98180;;;;
2021/12/25 08:33:07;;;;;;;42.9;52.8;;;;;;;-2;73.5;98180;;;;
2021/12/25 08:43:07;;;;;;;42.9;52.8;;;;;;;-2;73.7;98180;;;;
2021/12/25 08:54:07;;;;;;;4;6.4;;;;;;;-2;72.8;98190;;;;
2021/12/25 09:04:07;;;;;;;4;6.4;;;;;;;-1.8;72.2;98190;;;;
2021/12/25 09:15:07;;;;;;;15.7;18.4;;;;;;;-1.5;70.7;98190;;;;
2021/12/25 09:25:07;;;;;;;15.7;18.4;;;;;;;-1.4;67.3;98200;;;;
2021/12/25 09:36:07;;;;;;;15.7;18.4;;;;;;;-1.6;67.4;98200;;;;
2021/12/25 09:46:07;;;;;;;7;10.3;;;;;;;-1.2;66.5;98200;;;;
2021/12/25 09:57:07;;;;;;;7;10.3;;;;;;;-1.5;67.6;98190;;;;
2021/12/25 10:07:07;;;;;;;7;10.3;;;;;;;-0.7;67.1;98180;;;;
2021/12/25 10:18:07;;;;;;;19.5;23.4;;;;;;;-0.8;66.9;98160;;;;
2021/12/25 10:28:07;;;;;;;19.5;23.4;;;;;;;-0.6;67.1;98170;;;;
2021/12/25 10:38:07;;;;;;;19.5;23.4;;;;;;;-0.8;66.2;98180;;;;
2021/12/25 10:48:08;;;;;;;12.5;14.6;;;;;;;-0.6;67;98180;;;;
2021/12/25 10:58:07;;;;;;;12.5;14.6;;;;;;;-0.7;67.4;98180;;;;
2021/12/25 11:09:07;;;;;;;12.5;14.6;;;;;;;-0.7;65.9;98190;;;;
2021/12/25 11:19:09;;;;;;;8;11;;;;;;;-1.2;64.6;98190;;;;
2021/12/25 11:29:07;;;;;;;8;11;;;;;;;-1;63.7;98180;;;;
2021/12/25 11:40:07;;;;;;;8;11;;;;;;;-1.2;62.9;98170;;;;
2021/12/25 11:51:07;;;;;;;10.4;14.5;;;;;;;-1.3;63.2;98170;;;;
2021/12/25 12:02:07;;;;;;;10.4;14.5;;;;;;;-1.2;63.7;98180;;;;
2021/12/25 12:13:07;;;;;;;10.4;14.5;;;;;;;-1.1;61.8;98200;;;;
2021/12/25 12:24:22;;;;;;;20.7;27.8;;;;;;;-1.3;62.1;98200;;;;
2021/12/25 12:34:07;;;;;;;20.7;27.8;;;;;;;-1.5;62.1;98210;;;;
2021/12/25 12:44:07;;;;;;;53.5;70.1;;;;;;;-1.9;61.4;98210;;;;
2021/12/25 12:54:07;;;;;;;53.5;70.1;;;;;;;-1.4;61.6;98220;;;;
2021/12/25 13:04:08;;;;;;;53.5;70.1;;;;;;;-1.4;60.6;98230;;;;
2021/12/25 13:15:10;;;;;;;7.2;12.6;;;;;;;-1.6;60.3;98250;;;;
2021/12/25 13:25:08;;;;;;;7.2;12.6;;;;;;;-2;60.6;98260;;;;
2021/12/25 13:36:08;;;;;;;7.2;12.6;;;;;;;-2;60.7;98270;;;;
2021/12/25 13:46:07;;;;;;;5.9;9.6;;;;;;;-2.4;63.2;98270;;;;
2021/12/25 13:57:07;;;;;;;5.9;9.6;;;;;;;-2.5;63.6;98270;;;;
2021/12/25 14:08:07;;;;;;;5.9;9.6;;;;;;;-2.8;64.4;98300;;;;
2021/12/25 14:18:07;;;;;;;10.2;15.4;;;;;;;-3.1;64.9;98310;;;;
2021/12/25 14:28:08;;;;;;;10.2;15.4;;;;;;;-3.1;65.2;98320;;;;
2021/12/25 14:38:08;;;;;;;10.2;15.4;;;;;;;-3.2;66.5;98340;;;;
2021/12/25 14:48:07;;;;;;;11;13.3;;;;;;;-3.2;67;98340;;;;
2021/12/25 14:59:08;;;;;;;11;13.3;;;;;;;-3.4;68.7;98320;;;;
2021/12/25 15:09:07;;;;;;;11;13.3;;;;;;;-3.3;68.7;98340;;;;
2021/12/25 15:20:08;;;;;;;19.1;22.9;;;;;;;-3.5;69.5;98340;;;;
2021/12/25 15:30:07;;;;;;;19.1;22.9;;;;;;;-3.4;68.6;98350;;;;
2021/12/25 15:40:08;;;;;;;19.1;22.9;;;;;;;-3.6;68.6;98350;;;;
2021/12/25 15:51:08;;;;;;;13.8;17.3;;;;;;;-3.7;69.3;98360;;;;
2021/12/25 16:01:08;;;;;;;13.8;17.3;;;;;;;-3.6;69.5;98370;;;;
2021/12/25 16:12:08;;;;;;;13.8;17.3;;;;;;;-3.6;69.9;98380;;;;
2021/12/25 16:22:08;;;;;;;14.3;18.1;;;;;;;-3.5;70.1;98390;;;;
2021/12/25 16:33:08;;;;;;;14.3;18.1;;;;;;;-3.5;70.2;98400;;;;
2021/12/25 16:43:08;;;;;;;17;20.7;;;;;;;-3.7;69.8;98380;;;;
2021/12/25 16:53:08;;;;;;;17;20.7;;;;;;;-3.7;70.2;98390;;;;
2021/12/25 17:04:08;;;;;;;17;20.7;;;;;;;-3.8;69.5;98410;;;;
2021/12/25 17:15:08;;;;;;;17;22.4;;;;;;;-3.8;69.8;98420;;;;
2021/12/25 17:25:08;;;;;;;17;22.4;;;;;;;-3.8;70;98420;;;;
2021/12/25 17:36:08;;;;;;;17;22.4;;;;;;;-3.9;70.1;98430;;;;
2021/12/25 17:47:08;;;;;;;45.5;55.3;;;;;;;-3.9;70.6;98440;;;;
2021/12/25 17:58:08;;;;;;;45.5;55.3;;;;;;;-3.8;70.1;98470;;;;
2021/12/25 18:08:08;;;;;;;45.5;55.3;;;;;;;-4;70.2;98450;;;;
2021/12/25 18:18:08;;;;;;;39.7;52.5;;;;;;;-4.2;70.4;98460;;;;
2021/12/25 18:28:08;;;;;;;39.7;52.5;;;;;;;-4.1;70.3;98470;;;;
2021/12/25 18:39:08;;;;;;;39.7;52.5;;;;;;;-4;70.8;98460;;;;
2021/12/25 18:49:08;;;;;;;15.4;18.9;;;;;;;-4.1;71;98450;;;;
2021/12/25 18:59:08;;;;;;;15.4;18.9;;;;;;;-4.2;71.5;98450;;;;
2021/12/25 19:10:08;;;;;;;15.4;18.9;;;;;;;-4.3;71.4;98450;;;;
2021/12/25 19:21:08;;;;;;;32.2;42.5;;;;;;;-4.4;70.6;98460;;;;
2021/12/25 19:31:08;;;;;;;32.2;42.5;;;;;;;-4.6;70.5;98470;;;;
2021/12/25 19:42:08;;;;;;;25.7;30.5;;;;;;;-4.8;70.6;98460;;;;
2021/12/25 19:52:08;;;;;;;25.7;30.5;;;;;;;-5.2;71.6;98470;;;;
2021/12/25 20:03:08;;;;;;;25.7;30.5;;;;;;;-5.4;72.1;98480;;;;
2021/12/25 20:14:08;;;;;;;30.8;39.2;;;;;;;-5.7;72.8;98470;;;;
2021/12/25 20:24:08;;;;;;;30.8;39.2;;;;;;;-5.9;73.4;98480;;;;
2021/12/25 20:34:08;;;;;;;30.8;39.2;;;;;;;-6;73.6;98480;;;;
2021/12/25 20:44:15;;;;;;;31.9;41.1;;;;;;;-6.3;73.8;98480;;;;
2021/12/25 20:54:08;;;;;;;31.9;41.1;;;;;;;-6.6;74.4;98480;;;;
2021/12/25 21:05:08;;;;;;;31.9;41.1;;;;;;;-6.7;74.8;98490;;;;
2021/12/25 21:15:08;;;;;;;31.6;47.6;;;;;;;-6.9;74.9;98490;;;;
2021/12/25 21:26:08;;;;;;;31.6;47.6;;;;;;;-7;75;98490;;;;
2021/12/25 21:37:08;;;;;;;31.6;47.6;;;;;;;-7.1;74.9;98510;;;;
2021/12/25 21:47:08;;;;;;;32.9;44.6;;;;;;;-7.2;74.6;98510;;;;
2021/12/25 21:57:08;;;;;;;32.9;44.6;;;;;;;-7.3;75.5;98510;;;;
2021/12/25 22:08:08;;;;;;;32.9;44.6;;;;;;;-7.4;75.3;98520;;;;
2021/12/25 22:18:08;;;;;;;32.6;45.4;;;;;;;-7.4;75.3;98530;;;;
2021/12/25 22:28:08;;;;;;;32.6;45.4;;;;;;;-7.5;74.9;98520;;;;
2021/12/25 22:39:08;;;;;;;32.6;45.4;;;;;;;-7.7;74.3;98530;;;;
2021/12/25 22:50:08;;;;;;;34.1;53.1;;;;;;;-7.8;74.6;98520;;;;
2021/12/25 23:01:08;;;;;;;34.1;53.1;;;;;;;-7.8;75.2;98520;;;;
2021/12/25 23:11:08;;;;;;;29.8;47.1;;;;;;;-7.9;75.1;98540;;;;
2021/12/25 23:21:08;;;;;;;29.8;47.1;;;;;;;-7.9;75.2;98530;;;;
2021/12/25 23:31:08;;;;;;;29.8;47.1;;;;;;;-8;75.6;98540;;;;
2021/12/25 23:41:08;;;;;;;28.1;41.2;;;;;;;-7.9;75.6;98550;;;;
2021/12/25 23:51:08;;;;;;;28.1;41.2;;;;;;;-7.9;75.8;98550;;;;
